Terminal Aerodrome Forecast
Issued by NWS

Home | Current Version | Previous Version | Text Only | Print | Product List | Glossary On
Versions: 1 2 3 4 5 6 7 8 9 10 11 12 13 14 15 16 17 18 19 20 21 22 23 24 25 26 27 28 29 30 31 32 33 34 35 36 37 38 39 40
000
FTPA31 PHFO 260500
TAFOGG
TAF
PHOG 260538Z 2606/2706 18007KT P6SM FEW030 SCT050
     FM262100 22012KT P6SM FEW040 SCT060
     FM270500 20008KT P6SM FEW030 SCT050
      AMD LTD TO WX VIS AND WIND 2609/2616=

USA.gov is the U.S. government's official web portal to all federal, state and local government web resources and services.